createdAt,value
2022-08-04T00:00:15.760Z,3.3
2022-08-04T00:01:24.337Z,3.1
2022-08-04T00:02:32.702Z,3.1
2022-08-04T00:03:41.077Z,3.1
2022-08-04T00:04:49.646Z,4.1
2022-08-04T00:05:58.017Z,4.1
2022-08-04T00:07:06.388Z,4.1
2022-08-04T00:08:14.974Z,4
2022-08-04T00:09:23.329Z,4
2022-08-04T00:10:31.691Z,4
2022-08-04T00:11:40.268Z,4.1
2022-08-04T00:12:48.662Z,4.1
2022-08-04T00:14:02.720Z,4.1
2022-08-04T00:15:05.590Z,3.5
2022-08-04T00:16:13.967Z,3.5
2022-08-04T00:17:22.539Z,3.5
2022-08-04T00:18:30.902Z,3.6
2022-08-04T00:19:39.278Z,3.6
2022-08-04T00:20:47.663Z,3.6
2022-08-04T00:21:56.234Z,3
2022-08-04T00:23:04.598Z,3
2022-08-04T00:24:13.231Z,3
2022-08-04T00:25:21.547Z,3.1
2022-08-04T00:26:29.908Z,3.1
2022-08-04T00:27:38.278Z,3.1
2022-08-04T00:28:46.845Z,4.3
2022-08-04T00:29:55.212Z,4.3
2022-08-04T00:31:03.568Z,4.3
2022-08-04T00:32:12.166Z,4
2022-08-04T00:33:20.511Z,4
2022-08-04T00:34:28.884Z,4
2022-08-04T00:35:37.453Z,3.8
2022-08-04T00:36:45.838Z,3.8
2022-08-04T00:37:54.214Z,3.8
2022-08-04T00:39:02.903Z,3
2022-08-04T00:40:11.188Z,3
2022-08-04T00:41:19.562Z,3
2022-08-04T00:42:28.142Z,3.1
2022-08-04T00:43:36.495Z,3.1
2022-08-04T00:44:44.857Z,3.1
2022-08-04T00:46:00.691Z,4
2022-08-04T00:47:01.797Z,4
2022-08-04T00:48:10.165Z,4
2022-08-04T00:49:18.733Z,5.3
2022-08-04T00:50:27.086Z,5.3
2022-08-04T00:51:35.455Z,5.3
2022-08-04T00:52:44.043Z,4.8
2022-08-04T00:53:52.404Z,4.8
2022-08-04T00:55:01.755Z,4.8
2022-08-04T00:56:09.362Z,3.3
2022-08-04T00:57:28.521Z,3.3
2022-08-04T00:58:26.127Z,3.3
2022-08-04T00:59:34.692Z,5.1
2022-08-04T01:00:43.055Z,5.1
2022-08-04T01:01:51.469Z,5.1
2022-08-04T01:02:59.997Z,5.3
2022-08-04T01:04:08.370Z,5.3
2022-08-04T01:05:16.746Z,5.3
2022-08-04T01:06:25.313Z,3.2
2022-08-04T01:07:33.681Z,3.2
2022-08-04T01:08:42.050Z,3.2
2022-08-04T01:09:50.622Z,5.5
2022-08-04T01:10:58.997Z,5.5
2022-08-04T01:12:07.371Z,5.5
2022-08-04T01:13:15.949Z,3.6
2022-08-04T01:14:25.521Z,3.6
2022-08-04T01:15:32.672Z,3.6
2022-08-04T01:16:41.261Z,5.2
2022-08-04T01:17:49.630Z,5.2
2022-08-04T01:18:58.000Z,5.2
2022-08-04T01:20:06.571Z,3.7
2022-08-04T01:21:14.958Z,3.7
2022-08-04T01:22:23.335Z,3.7
2022-08-04T01:23:31.916Z,3.1
2022-08-04T01:24:40.272Z,3.1
2022-08-04T01:25:48.634Z,3.1
2022-08-04T01:26:58.428Z,3.2
2022-08-04T01:28:05.590Z,3.2
2022-08-04T01:29:14.215Z,3.2
2022-08-04T01:30:22.543Z,3.2
2022-08-04T01:31:30.919Z,3.2
2022-08-04T01:32:39.275Z,3.2
2022-08-04T01:33:58.770Z,4.1
2022-08-04T01:34:56.209Z,4.1
2022-08-04T01:36:04.592Z,4.1
2022-08-04T01:37:13.235Z,3.3
2022-08-04T01:38:22.071Z,3.3
2022-08-04T01:39:29.964Z,3.3
2022-08-04T01:40:38.491Z,3.6
2022-08-04T01:41:51.615Z,3.6
2022-08-04T01:42:55.252Z,3.6
2022-08-04T01:44:03.844Z,3.9
2022-08-04T01:45:12.184Z,3.9
2022-08-04T01:46:20.556Z,3.9
2022-08-04T01:47:29.139Z,3.2
2022-08-04T01:48:37.513Z,3.2
2022-08-04T01:49:45.866Z,3.2
2022-08-04T01:50:54.437Z,3.6
2022-08-04T01:52:02.830Z,3.6
2022-08-04T01:53:11.184Z,3.6
2022-08-04T01:54:19.757Z,3.2
2022-08-04T01:55:51.802Z,3.2
2022-08-04T01:56:36.506Z,3.2
2022-08-04T01:57:45.107Z,4.4
2022-08-04T01:58:53.465Z,4.4
2022-08-04T02:00:01.819Z,4.4
2022-08-04T02:01:10.466Z,3.5
2022-08-04T02:02:18.889Z,3.5
2022-08-04T02:04:19.246Z,3.5
2022-08-04T02:04:35.725Z,3.8
2022-08-04T02:06:02.713Z,3.8
2022-08-04T02:06:52.493Z,3.8
2022-08-04T02:08:01.090Z,4.9
2022-08-04T02:09:09.445Z,4.9
2022-08-04T02:10:17.806Z,4.9
2022-08-04T02:11:26.388Z,3.9
2022-08-04T02:12:34.770Z,3.9
2022-08-04T02:13:43.144Z,3.9
2022-08-04T02:14:51.742Z,3.8
2022-08-04T02:16:00.123Z,3.8
2022-08-04T02:17:08.506Z,3.8
2022-08-04T02:18:17.075Z,4.1
2022-08-04T02:19:25.497Z,4.1
2022-08-04T02:20:33.870Z,4.1
2022-08-04T02:21:43.044Z,3.6
2022-08-04T02:22:50.838Z,3.6
2022-08-04T02:23:59.212Z,3.6
2022-08-04T02:25:07.794Z,4.4
2022-08-04T02:26:19.408Z,4.4
2022-08-04T02:27:24.534Z,4.4
2022-08-04T02:28:33.104Z,3.1
2022-08-04T02:29:41.465Z,3.1
2022-08-04T02:30:49.850Z,3.1
2022-08-04T02:31:58.446Z,2.7
2022-08-04T02:33:06.812Z,2.7
2022-08-04T02:34:15.158Z,2.7
2022-08-04T02:35:23.733Z,3.2
2022-08-04T02:36:32.122Z,3.2
2022-08-04T02:37:40.494Z,3.2
2022-08-04T02:38:49.077Z,3
2022-08-04T02:39:57.446Z,3
2022-08-04T02:41:05.822Z,3
2022-08-04T02:42:14.400Z,3.1
2022-08-04T02:43:50.105Z,3.1
2022-08-04T02:44:31.163Z,3.1
2022-08-04T02:45:39.756Z,4
2022-08-04T02:46:48.115Z,4
2022-08-04T02:48:08.500Z,4
2022-08-04T02:49:05.055Z,2.6
2022-08-04T02:50:13.424Z,2.6
2022-08-04T02:51:21.800Z,2.6
2022-08-04T02:52:30.368Z,3.5
2022-08-04T02:53:38.739Z,3.5
2022-08-04T02:54:47.100Z,3.5
2022-08-04T02:55:56.408Z,2.6
2022-08-04T02:57:04.350Z,2.6
2022-08-04T02:58:12.417Z,2.6
2022-08-04T02:59:20.989Z,3.1
2022-08-04T03:00:29.380Z,3.1
2022-08-04T03:01:37.865Z,3.1
2022-08-04T03:02:46.347Z,4.3
2022-08-04T03:03:54.723Z,4.3
2022-08-04T03:05:03.082Z,4.3
2022-08-04T03:06:11.695Z,3
2022-08-04T03:07:20.200Z,3
2022-08-04T03:08:28.422Z,3
2022-08-04T03:09:36.998Z,4.4
2022-08-04T03:10:45.378Z,4.4
2022-08-04T03:11:53.753Z,4.4
2022-08-04T03:13:02.329Z,3.3
2022-08-04T03:14:10.697Z,3.3
2022-08-04T03:15:19.062Z,3.3
2022-08-04T03:16:30.332Z,3.2
2022-08-04T03:17:36.004Z,3.2
2022-08-04T03:18:44.370Z,3.2
2022-08-04T03:19:52.925Z,3.1
2022-08-04T03:21:01.305Z,3.1
2022-08-04T03:22:09.672Z,3.1
2022-08-04T03:23:18.267Z,3.6
2022-08-04T03:24:26.641Z,3.6
2022-08-04T03:25:35.039Z,3.6
2022-08-04T03:26:43.605Z,3.3
2022-08-04T03:27:51.996Z,3.3
2022-08-04T03:29:00.367Z,3.3
2022-08-04T03:30:08.933Z,5.1
2022-08-04T03:31:17.310Z,5.1
2022-08-04T03:32:25.699Z,5.1
2022-08-04T03:33:34.269Z,3.3
2022-08-04T03:34:42.626Z,3.3
2022-08-04T03:35:51.039Z,3.3
2022-08-04T03:36:59.607Z,4.1
2022-08-04T03:38:07.973Z,4.1
2022-08-04T03:39:16.396Z,4.1
2022-08-04T03:40:24.960Z,3.5
2022-08-04T03:41:52.017Z,3.5
2022-08-04T03:42:41.708Z,3.5
2022-08-04T03:43:56.541Z,4.6
2022-08-04T03:44:58.640Z,4.6
2022-08-04T03:46:07.011Z,4.6
2022-08-04T03:47:15.589Z,3.7
2022-08-04T03:48:23.984Z,3.7
2022-08-04T03:49:32.363Z,3.7
2022-08-04T03:50:41.511Z,4.5
2022-08-04T03:51:49.321Z,4.5
2022-08-04T03:52:57.692Z,4.5
2022-08-04T03:54:06.290Z,6.1
2022-08-04T03:55:14.667Z,6.1
2022-08-04T03:56:23.051Z,6.1
2022-08-04T03:57:31.643Z,3.3
2022-08-04T03:58:40.014Z,3.3
2022-08-04T03:59:48.924Z,3.3
2022-08-04T04:00:56.985Z,4.7
2022-08-04T04:02:06.438Z,4.7
2022-08-04T04:03:22.875Z,4.7
2022-08-04T04:04:22.291Z,5.1
2022-08-04T04:05:32.964Z,5.1
2022-08-04T04:06:39.060Z,5.1
2022-08-04T04:07:49.783Z,3.4
2022-08-04T04:08:56.027Z,3.4
2022-08-04T04:10:06.573Z,3.4
2022-08-04T04:11:12.976Z,3.9
2022-08-04T04:12:21.354Z,3.9
2022-08-04T04:13:29.753Z,3.9
2022-08-04T04:14:39.014Z,3.9
2022-08-04T04:15:49.892Z,3.9
2022-08-04T04:16:55.764Z,3.9
2022-08-04T04:18:04.351Z,2.8
2022-08-04T04:19:12.722Z,2.8
2022-08-04T04:20:21.095Z,2.8
2022-08-04T04:21:29.676Z,3.1
2022-08-04T04:22:38.609Z,3.1
2022-08-04T04:23:46.419Z,3.1
2022-08-04T04:24:55.025Z,1.7
2022-08-04T04:26:03.407Z,1.7
2022-08-04T04:27:11.778Z,1.7
2022-08-04T04:28:43.866Z,2
2022-08-04T04:29:28.749Z,2
2022-08-04T04:30:37.139Z,2
2022-08-04T04:31:45.709Z,2
2022-08-04T04:32:54.069Z,2
2022-08-04T04:34:02.439Z,2
2022-08-04T04:35:11.032Z,2.4
2022-08-04T04:36:19.417Z,2.4
2022-08-04T04:37:27.785Z,2.4
2022-08-04T04:38:36.351Z,2.7
2022-08-04T04:39:44.713Z,2.7
2022-08-04T04:40:53.128Z,2.7
2022-08-04T04:42:01.703Z,4
2022-08-04T04:43:10.084Z,4
2022-08-04T04:44:18.447Z,4
2022-08-04T04:45:27.030Z,5.1
2022-08-04T04:46:35.404Z,5.1
2022-08-04T04:48:07.910Z,5.1
2022-08-04T04:48:52.345Z,3.7
2022-08-04T04:50:00.728Z,3.7
2022-08-04T04:51:09.123Z,3.7
2022-08-04T04:52:17.690Z,2.5
2022-08-04T04:53:26.056Z,2.5
2022-08-04T04:54:34.431Z,2.5
2022-08-04T04:55:47.758Z,1.6
2022-08-04T04:56:51.382Z,1.6
2022-08-04T04:57:59.766Z,1.6
2022-08-04T04:59:08.349Z,2
2022-08-04T05:00:16.734Z,2
2022-08-04T05:01:25.095Z,2
2022-08-04T05:02:33.698Z,1.6
2022-08-04T05:03:42.085Z,1.6
2022-08-04T05:04:50.474Z,1.6
2022-08-04T05:05:59.052Z,2.2
2022-08-04T05:07:07.430Z,2.2
2022-08-04T05:08:42.906Z,2.2
2022-08-04T05:09:24.364Z,1.9
2022-08-04T05:10:32.878Z,1.9
2022-08-04T05:11:41.350Z,1.9
2022-08-04T05:14:22.978Z,1.8
2022-08-04T05:14:33.516Z,1.8
2022-08-04T05:15:06.721Z,1.8
2022-08-04T05:16:15.333Z,3.2
2022-08-04T05:17:23.990Z,3.2
2022-08-04T05:18:32.089Z,3.2
2022-08-04T05:19:40.676Z,4.1
2022-08-04T05:20:49.045Z,4.1
2022-08-04T05:21:57.404Z,4.1
2022-08-04T05:23:06.004Z,2
2022-08-04T05:24:14.372Z,2
2022-08-04T05:25:22.773Z,2
2022-08-04T05:26:31.346Z,1.9
2022-08-04T05:27:40.207Z,1.9
2022-08-04T05:28:48.101Z,1.9
2022-08-04T05:29:56.691Z,1.9
2022-08-04T05:31:05.055Z,1.9
2022-08-04T05:32:13.426Z,1.9
2022-08-04T05:33:24.878Z,4.5
2022-08-04T05:34:30.402Z,4.5
2022-08-04T05:35:53.132Z,4.5
2022-08-04T05:36:47.362Z,2.9
2022-08-04T05:38:01.093Z,2.9
2022-08-04T05:39:04.148Z,2.9
2022-08-04T05:40:12.708Z,2.4
2022-08-04T05:41:21.083Z,2.4
2022-08-04T05:42:29.451Z,2.4
2022-08-04T05:43:38.034Z,2.4
2022-08-04T05:44:50.558Z,2.4
2022-08-04T05:45:54.779Z,2.4
2022-08-04T05:47:03.358Z,1.9
2022-08-04T05:48:11.748Z,1.9
2022-08-04T05:49:21.221Z,1.9
2022-08-04T05:50:28.703Z,2.1
2022-08-04T05:51:37.083Z,2.1
2022-08-04T05:52:45.462Z,2.1
2022-08-04T05:53:54.040Z,2.7
2022-08-04T05:55:02.435Z,2.7
2022-08-04T05:56:10.854Z,2.7
2022-08-04T05:57:19.551Z,2.4
2022-08-04T05:58:27.819Z,2.4
2022-08-04T05:59:36.220Z,2.4
2022-08-04T06:00:51.465Z,2.7
2022-08-04T06:01:56.220Z,2.7
2022-08-04T06:03:01.573Z,2.7
2022-08-04T06:04:11.424Z,1.9
2022-08-04T06:05:18.510Z,1.9
2022-08-04T06:06:27.993Z,1.9
2022-08-04T06:07:35.445Z,3.3
2022-08-04T06:08:43.824Z,3.3
2022-08-04T06:09:52.211Z,3.3
2022-08-04T06:11:00.798Z,2
2022-08-04T06:12:09.162Z,2
2022-08-04T06:13:44.968Z,2
2022-08-04T06:14:26.125Z,2.7
2022-08-04T06:15:34.503Z,2.7
2022-08-04T06:16:42.854Z,2.7
2022-08-04T06:18:34.465Z,1.7
2022-08-04T06:19:58.266Z,1.7
2022-08-04T06:20:18.650Z,1.7
2022-08-04T06:21:16.780Z,3.4
2022-08-04T06:22:25.147Z,3.4
2022-08-04T06:23:33.566Z,3.4
2022-08-04T06:24:42.120Z,2.2
2022-08-04T06:25:50.480Z,2.2
2022-08-04T06:26:58.849Z,2.2
2022-08-04T06:28:07.433Z,2.3
2022-08-04T06:29:15.819Z,2.3
2022-08-04T06:30:24.175Z,2.3
2022-08-04T06:32:26.322Z,1.6
2022-08-04T06:32:41.944Z,1.6
2022-08-04T06:33:54.724Z,1.6
2022-08-04T06:34:58.074Z,1.6
2022-08-04T06:36:06.448Z,1.6
2022-08-04T06:37:23.240Z,1.6
2022-08-04T06:38:23.410Z,2.1
2022-08-04T06:39:31.848Z,2.1
2022-08-04T06:40:40.159Z,2.1
2022-08-04T06:41:55.269Z,2.4
2022-08-04T06:42:57.132Z,2.4
2022-08-04T06:44:05.530Z,2.4
2022-08-04T06:45:14.114Z,2.5
2022-08-04T06:46:22.471Z,2.5
2022-08-04T06:47:30.857Z,2.5
2022-08-04T06:48:39.442Z,2.3
2022-08-04T06:51:24.267Z,2.3
2022-08-04T06:51:29.052Z,2.3
2022-08-04T06:52:04.765Z,3.5
2022-08-04T06:53:13.166Z,3.5
2022-08-04T06:54:21.523Z,3.5
2022-08-04T06:55:30.118Z,2.3
2022-08-04T06:56:38.480Z,2.3
2022-08-04T06:57:46.844Z,2.3
2022-08-04T06:58:55.468Z,3.2
2022-08-04T07:00:03.865Z,3.2
2022-08-04T07:01:12.230Z,3.2
2022-08-04T07:02:20.814Z,2
2022-08-04T07:03:29.217Z,2
2022-08-04T07:04:37.589Z,2
2022-08-04T07:05:46.163Z,4.9
2022-08-04T07:06:54.527Z,4.9
2022-08-04T07:08:02.914Z,4.9
2022-08-04T07:09:11.493Z,3.7
2022-08-04T07:10:22.124Z,3.7
2022-08-04T07:11:28.274Z,3.7
2022-08-04T07:12:36.844Z,1.7
2022-08-04T07:13:45.595Z,1.7
2022-08-04T07:14:53.587Z,1.7
2022-08-04T07:16:02.175Z,4.3
2022-08-04T07:17:10.529Z,4.3
2022-08-04T07:18:18.902Z,4.3
2022-08-04T07:19:27.491Z,3.4
2022-08-04T07:20:36.885Z,3.4
2022-08-04T07:22:16.063Z,3.4
2022-08-04T07:22:52.805Z,2.5
2022-08-04T07:24:01.161Z,2.5
2022-08-04T07:25:12.671Z,2.5
2022-08-04T07:26:18.093Z,2.4
2022-08-04T07:27:47.138Z,2.4
2022-08-04T07:28:34.834Z,2.4
2022-08-04T07:29:43.415Z,2.6
2022-08-04T07:30:51.768Z,2.6
2022-08-04T07:32:00.137Z,2.6
2022-08-04T07:33:08.731Z,2.5
2022-08-04T07:34:21.513Z,2.5
2022-08-04T07:36:04.168Z,2.5
2022-08-04T07:36:42.046Z,2.7
2022-08-04T07:37:42.400Z,2.7
2022-08-04T07:38:51.709Z,2.7
2022-08-04T07:39:59.446Z,1.8
2022-08-04T07:41:37.605Z,1.8
2022-08-04T07:42:16.112Z,1.8
2022-08-04T07:43:24.709Z,2.3
2022-08-04T07:44:33.074Z,2.3
2022-08-04T07:45:41.439Z,2.3
2022-08-04T07:46:50.020Z,2.8
2022-08-04T07:48:04.474Z,2.8
2022-08-04T07:49:06.764Z,2.8
2022-08-04T07:50:15.346Z,4.4
2022-08-04T07:51:23.716Z,4.4
2022-08-04T07:52:32.456Z,4.4
2022-08-04T07:53:53.882Z,2.5
2022-08-04T07:54:49.041Z,2.5
2022-08-04T07:55:57.414Z,2.5
2022-08-04T07:57:05.976Z,2.1
2022-08-04T07:58:14.363Z,2.1
2022-08-04T07:59:22.740Z,2.1
2022-08-04T08:00:31.322Z,1.7
2022-08-04T08:01:39.682Z,1.7
2022-08-04T08:02:48.068Z,1.7
2022-08-04T08:03:56.745Z,1.8
2022-08-04T08:05:05.044Z,1.8
2022-08-04T08:06:18.302Z,1.8
2022-08-04T08:07:22.175Z,3.2
2022-08-04T08:08:30.375Z,3.2
2022-08-04T08:09:38.752Z,3.2
2022-08-04T08:10:47.333Z,1.6
2022-08-04T08:12:34.593Z,1.6
2022-08-04T08:13:04.075Z,1.6
2022-08-04T08:14:12.664Z,1.9
2022-08-04T08:15:21.037Z,1.9
2022-08-04T08:16:29.405Z,1.9
2022-08-04T08:17:58.031Z,2.2
2022-08-04T08:18:49.941Z,2.2
2022-08-04T08:19:54.757Z,2.2
2022-08-04T08:21:03.326Z,2.7
2022-08-04T08:22:11.690Z,2.7
2022-08-04T08:23:20.078Z,2.7
2022-08-04T08:24:28.672Z,2.2
2022-08-04T08:25:37.034Z,2.2
2022-08-04T08:26:45.421Z,2.2
2022-08-04T08:27:55.858Z,2.5
2022-08-04T08:29:02.373Z,2.5
2022-08-04T08:30:10.753Z,2.5
2022-08-04T08:31:19.325Z,1.9
2022-08-04T08:32:27.687Z,1.9
2022-08-04T08:33:36.063Z,1.9
2022-08-04T08:34:44.657Z,1.7
2022-08-04T08:35:54.601Z,1.7
2022-08-04T08:37:01.398Z,1.7
2022-08-04T08:38:10.010Z,2.4
2022-08-04T08:39:21.610Z,2.4
2022-08-04T08:40:39.281Z,2.4
2022-08-04T08:41:35.332Z,2.3
2022-08-04T08:42:43.702Z,2.3
2022-08-04T08:44:00.083Z,2.3
2022-08-04T08:45:00.651Z,2.6
2022-08-04T08:46:09.017Z,2.6
2022-08-04T08:47:17.411Z,2.6
2022-08-04T08:48:26.031Z,2.3
2022-08-04T08:50:01.323Z,2.3
2022-08-04T08:50:42.774Z,2.3
2022-08-04T08:51:51.346Z,1.7
2022-08-04T08:53:01.841Z,1.7
2022-08-04T08:54:08.130Z,1.7
2022-08-04T08:55:16.725Z,2.7
2022-08-04T08:56:31.085Z,2.7
2022-08-04T08:57:33.467Z,2.7
2022-08-04T08:58:42.080Z,1.7
2022-08-04T08:59:50.438Z,1.7
2022-08-04T09:00:58.825Z,1.7
2022-08-04T09:02:07.402Z,3.5
2022-08-04T09:03:15.769Z,3.5
2022-08-04T09:04:25.917Z,3.5
2022-08-04T09:05:32.735Z,1.9
2022-08-04T09:06:41.117Z,1.9
2022-08-04T09:07:49.483Z,1.9
2022-08-04T09:08:58.084Z,1.8
2022-08-04T09:10:06.432Z,1.8
2022-08-04T09:11:14.814Z,1.8
2022-08-04T09:12:25.735Z,3.7
2022-08-04T09:13:31.767Z,3.7
2022-08-04T09:14:40.143Z,3.7
2022-08-04T09:15:52.443Z,1.9
2022-08-04T09:16:57.071Z,1.9
2022-08-04T09:18:05.475Z,1.9
2022-08-04T09:19:22.737Z,3.5
2022-08-04T09:20:22.437Z,3.5
2022-08-04T09:21:30.790Z,3.5
2022-08-04T09:22:39.389Z,2.5
2022-08-04T09:23:47.760Z,2.5
2022-08-04T09:24:56.130Z,2.5
2022-08-04T09:26:04.708Z,2.1
2022-08-04T09:27:13.165Z,2.1
2022-08-04T09:28:37.445Z,2.1
2022-08-04T09:29:30.052Z,2.4
2022-08-04T09:30:38.447Z,2.4
2022-08-04T09:31:48.815Z,2.4
2022-08-04T09:32:55.435Z,1.9
2022-08-04T09:34:03.813Z,1.9
2022-08-04T09:35:15.544Z,1.9
2022-08-04T09:36:25.855Z,5.7
2022-08-04T09:37:29.130Z,5.7
2022-08-04T09:38:38.162Z,5.7
2022-08-04T09:39:51.910Z,12.2
2022-08-04T09:40:57.276Z,12.2
2022-08-04T09:42:03.502Z,12.2
2022-08-04T09:43:12.093Z,2.2
2022-08-04T09:44:43.374Z,2.2
2022-08-04T09:45:39.198Z,2.2
2022-08-04T09:46:37.407Z,2.4
2022-08-04T09:47:45.784Z,2.4
2022-08-04T09:48:54.172Z,2.4
2022-08-04T09:50:02.743Z,2.4
2022-08-04T09:51:11.104Z,2.4
2022-08-04T09:52:19.640Z,2.4
2022-08-04T09:53:28.077Z,2.2
2022-08-04T09:54:36.455Z,2.2
2022-08-04T09:55:54.160Z,2.2
2022-08-04T09:56:53.428Z,2.7
2022-08-04T09:58:01.786Z,2.7
2022-08-04T09:59:10.169Z,2.7
2022-08-04T10:00:18.778Z,2.6
2022-08-04T10:01:27.159Z,2.6
2022-08-04T10:02:36.512Z,2.6
2022-08-04T10:03:45.065Z,2.1
2022-08-04T10:04:53.435Z,2.1
2022-08-04T10:06:01.791Z,2.1
2022-08-04T10:07:10.405Z,2.2
2022-08-04T10:08:18.778Z,2.2
2022-08-04T10:09:27.121Z,2.2
2022-08-04T10:10:35.718Z,3
2022-08-04T10:11:54.323Z,3
2022-08-04T10:12:52.490Z,3
2022-08-04T10:14:01.062Z,2
2022-08-04T10:15:09.432Z,2
2022-08-04T10:16:17.804Z,2
2022-08-04T10:17:26.468Z,1.9
2022-08-04T10:18:34.825Z,1.9
2022-08-04T10:19:43.181Z,1.9
2022-08-04T10:20:55.664Z,33.799999
2022-08-04T10:22:27.638Z,33.799999
2022-08-04T10:23:11.332Z,33.799999
2022-08-04T10:24:17.103Z,3.7
2022-08-04T10:25:37.793Z,3.7
2022-08-04T10:26:34.840Z,3.7
2022-08-04T10:27:43.427Z,2.7
2022-08-04T10:28:51.786Z,2.7
2022-08-04T10:30:00.630Z,2.7
2022-08-04T10:31:08.744Z,2.9
2022-08-04T10:32:17.196Z,2.9
2022-08-04T10:33:25.555Z,2.9
2022-08-04T10:34:34.140Z,2
2022-08-04T10:35:42.525Z,2
2022-08-04T10:36:50.877Z,2
2022-08-04T10:38:01.967Z,2.1
2022-08-04T10:39:07.939Z,2.1
2022-08-04T10:40:16.212Z,2.1
2022-08-04T10:41:24.802Z,2.9
2022-08-04T10:42:33.180Z,2.9
2022-08-04T10:43:41.557Z,2.9
2022-08-04T10:44:53.176Z,2.2
2022-08-04T10:45:58.623Z,2.2
2022-08-04T10:47:06.911Z,2.2
2022-08-04T10:48:15.485Z,3.1
2022-08-04T10:49:23.860Z,3.1
2022-08-04T10:50:32.235Z,3.1
2022-08-04T10:51:56.964Z,2.1
2022-08-04T10:52:49.187Z,2.1
2022-08-04T10:53:57.589Z,2.1
2022-08-04T10:55:06.150Z,2.1
2022-08-04T10:56:14.521Z,2.1
2022-08-04T10:57:23.114Z,2.1
2022-08-04T10:58:47.217Z,2.2
2022-08-04T10:59:40.342Z,2.2
2022-08-04T11:00:48.728Z,2.2
2022-08-04T11:02:02.183Z,1.9
2022-08-04T11:03:05.783Z,1.9
2022-08-04T11:04:14.047Z,1.9
2022-08-04T11:05:22.624Z,1.7
2022-08-04T11:06:31.007Z,1.7
2022-08-04T11:07:39.392Z,1.7
2022-08-04T11:08:47.962Z,3.2
2022-08-04T11:09:56.333Z,3.2
2022-08-04T11:11:04.705Z,3.2
2022-08-04T11:12:15.228Z,4.5
2022-08-04T11:13:29.315Z,4.5
2022-08-04T11:14:32.014Z,4.5
2022-08-04T11:15:40.592Z,2.5
2022-08-04T11:16:49.897Z,2.5
2022-08-04T11:17:58.279Z,2.5
2022-08-04T11:19:06.859Z,1.6
2022-08-04T11:21:23.595Z,1.6
2022-08-04T11:22:32.209Z,2.6
2022-08-04T11:23:40.615Z,2.6
2022-08-04T11:24:48.979Z,2.6
2022-08-04T11:25:57.572Z,2.5
2022-08-04T11:27:05.954Z,2.5
2022-08-04T11:28:14.324Z,2.5
2022-08-04T11:29:22.919Z,2
2022-08-04T11:30:31.295Z,2
2022-08-04T11:31:39.675Z,2
2022-08-04T11:32:48.262Z,2
2022-08-04T11:33:56.633Z,2
2022-08-04T11:35:04.993Z,2
2022-08-04T11:36:13.624Z,2
2022-08-04T11:37:22.036Z,2
2022-08-04T11:38:32.252Z,2
2022-08-04T11:39:38.981Z,1.9
2022-08-04T11:40:55.677Z,1.9
2022-08-04T11:41:55.720Z,1.9
2022-08-04T11:43:04.310Z,1.8
2022-08-04T11:44:12.999Z,1.8
2022-08-04T11:45:21.061Z,1.8
2022-08-04T11:46:29.648Z,2.2
2022-08-04T11:47:38.066Z,2.2
2022-08-04T11:48:46.469Z,2.2
2022-08-04T11:49:56.372Z,2.7
2022-08-04T11:51:03.425Z,2.7
2022-08-04T11:52:11.803Z,2.7
2022-08-04T11:53:20.416Z,1.9
2022-08-04T11:54:28.778Z,1.9
2022-08-04T11:56:07.307Z,1.9
2022-08-04T11:56:45.798Z,2.3
2022-08-04T11:57:54.542Z,2.3
2022-08-04T11:59:02.537Z,2.3
2022-08-04T12:00:11.291Z,2.5
2022-08-04T12:01:19.894Z,2.5
2022-08-04T12:02:27.925Z,2.5
2022-08-04T12:03:36.824Z,3.6
2022-08-04T12:04:44.825Z,3.6
2022-08-04T12:05:53.195Z,3.6
2022-08-04T12:07:21.600Z,2.8
2022-08-04T12:08:10.163Z,2.8
2022-08-04T12:09:18.533Z,2.8
2022-08-04T12:10:38.138Z,3.4
2022-08-04T12:11:35.525Z,3.4
2022-08-04T12:12:43.914Z,3.4
2022-08-04T12:13:53.287Z,2.9
2022-08-04T12:15:00.914Z,2.9
2022-08-04T12:16:09.259Z,2.9
2022-08-04T12:17:17.868Z,2
2022-08-04T12:18:26.254Z,2
2022-08-04T12:19:54.756Z,2
2022-08-04T12:20:43.228Z,3.7
2022-08-04T12:21:53.097Z,3.7
2022-08-04T12:22:59.976Z,3.7
2022-08-04T12:24:08.562Z,2.3
2022-08-04T12:25:16.926Z,2.3
2022-08-04T12:26:25.315Z,2.3
2022-08-04T12:27:33.923Z,2.1
2022-08-04T12:29:08.321Z,2.1
2022-08-04T12:30:54.302Z,2.1
2022-08-04T12:31:04.200Z,2.3
2022-08-04T12:32:07.714Z,2.3
2022-08-04T12:33:17.778Z,2.3
2022-08-04T12:34:24.972Z,3.4
2022-08-04T12:35:33.290Z,3.4
2022-08-04T12:36:41.715Z,3.4
2022-08-04T12:37:50.773Z,2.4
2022-08-04T12:38:59.801Z,2.4
2022-08-04T12:40:17.103Z,2.4
2022-08-04T12:41:18.606Z,2.1
2022-08-04T12:42:27.009Z,2.1
2022-08-04T12:43:35.393Z,2.1
2022-08-04T12:44:44.022Z,2.1
2022-08-04T12:45:52.750Z,2.1
2022-08-04T12:47:25.635Z,2.1
2022-08-04T12:48:09.781Z,2.2
2022-08-04T12:49:19.085Z,2.2
2022-08-04T12:50:27.474Z,2.2
2022-08-04T12:52:07.347Z,2.7
2022-08-04T12:53:01.373Z,2.7
2022-08-04T12:53:52.918Z,2.7
2022-08-04T12:55:01.512Z,3.3
2022-08-04T12:56:09.938Z,3.3
2022-08-04T12:57:18.346Z,3.3
2022-08-04T12:58:42.515Z,5.2
2022-08-04T12:59:35.362Z,5.2
2022-08-04T13:00:43.891Z,5.2
2022-08-04T13:02:10.391Z,5.2
2022-08-04T13:03:13.520Z,5.2
2022-08-04T13:04:24.545Z,5.2
2022-08-04T13:05:31.078Z,1.9
2022-08-04T13:06:39.489Z,1.9
2022-08-04T13:07:47.898Z,1.9
2022-08-04T13:08:56.480Z,2.2
2022-08-04T13:10:04.922Z,2.2
2022-08-04T13:11:13.244Z,2.2
2022-08-04T13:12:24.931Z,2.3
2022-08-04T13:13:30.240Z,2.3
2022-08-04T13:14:38.655Z,2.3
2022-08-04T13:15:56.268Z,3
2022-08-04T13:16:55.749Z,3
2022-08-04T13:18:04.203Z,3
2022-08-04T13:19:12.816Z,3.8
2022-08-04T13:20:21.195Z,3.8
2022-08-04T13:22:38.219Z,2.8
2022-08-04T13:24:08.236Z,2.8
2022-08-04T13:24:56.479Z,2.8
2022-08-04T13:26:40.909Z,4.3
2022-08-04T13:27:14.898Z,4.3
2022-08-04T13:28:20.586Z,4.3
2022-08-04T13:29:57.666Z,2.7
2022-08-04T13:30:24.843Z,3.8
2022-08-04T13:30:37.586Z,2.7
2022-08-04T13:31:52.479Z,2.7
2022-08-04T13:32:54.655Z,2.8
2022-08-04T13:34:03.054Z,2.8
2022-08-04T13:35:11.433Z,2.8
2022-08-04T13:36:20.060Z,2.3
2022-08-04T13:37:28.456Z,2.3
2022-08-04T13:38:36.847Z,2.3
2022-08-04T13:39:45.446Z,1.9
2022-08-04T13:40:53.837Z,1.9
2022-08-04T13:42:02.250Z,1.9
2022-08-04T13:43:48.258Z,2
2022-08-04T13:44:20.284Z,2
2022-08-04T13:45:32.376Z,2
2022-08-04T13:46:36.322Z,2.7
2022-08-04T13:47:44.709Z,2.7
2022-08-04T13:49:15.845Z,2.7
2022-08-04T13:50:10.571Z,2.5
2022-08-04T13:51:10.133Z,2.5
2022-08-04T13:52:18.506Z,2.5
2022-08-04T13:53:31.060Z,3.5
2022-08-04T13:54:35.570Z,3.5
2022-08-04T13:55:43.962Z,3.5
2022-08-04T13:56:52.581Z,2.4
2022-08-04T13:58:01.022Z,2.4
2022-08-04T13:59:09.419Z,2.4
2022-08-04T14:00:29.094Z,1.8
2022-08-04T14:01:35.463Z,1.8
2022-08-04T14:02:34.816Z,1.8
2022-08-04T14:03:53.770Z,2.3
2022-08-04T14:04:51.837Z,2.3
2022-08-04T14:06:00.395Z,2.3
2022-08-04T14:07:16.233Z,2.3
2022-08-04T14:08:17.190Z,2.3
2022-08-04T14:09:34.985Z,2.3
2022-08-04T14:10:34.193Z,2.4
2022-08-04T14:12:07.432Z,2.4
2022-08-04T14:12:51.077Z,2.4
2022-08-04T14:13:59.672Z,2.7
2022-08-04T14:15:08.088Z,2.7
2022-08-04T14:16:16.471Z,2.7
2022-08-04T14:17:30.189Z,2.9
2022-08-04T14:18:33.485Z,2.9
2022-08-04T14:19:41.879Z,2.9
2022-08-04T14:20:50.467Z,2.6
2022-08-04T14:21:58.842Z,2.6
2022-08-04T14:23:07.255Z,2.6
2022-08-04T14:24:15.861Z,2.6
2022-08-04T14:25:27.602Z,2.6
2022-08-04T14:26:33.749Z,2.6
2022-08-04T14:27:41.225Z,3.2
2022-08-04T14:29:01.233Z,3.2
2022-08-04T15:03:48.167Z,0
2022-08-04T15:04:53.012Z,0
2022-08-04T15:06:06.811Z,0
2022-08-04T15:07:09.963Z,3.1
2022-08-04T15:08:18.357Z,3.1
2022-08-04T15:09:26.745Z,3.1
2022-08-04T15:10:35.348Z,3.4
2022-08-04T15:11:43.723Z,3.4
2022-08-04T15:12:52.059Z,3.4
2022-08-04T15:14:00.663Z,2
2022-08-04T15:15:27.063Z,2
2022-08-04T15:16:17.393Z,2
2022-08-04T15:17:28.979Z,3.2
2022-08-04T15:18:34.364Z,3.2
2022-08-04T15:19:55.399Z,3.2
2022-08-04T15:20:51.370Z,2.6
2022-08-04T15:21:59.714Z,2.6
2022-08-04T15:23:10.734Z,2.6
2022-08-04T15:24:16.679Z,3
2022-08-04T15:25:25.040Z,3
2022-08-04T15:26:33.425Z,3
2022-08-04T15:27:41.997Z,3.4
2022-08-04T15:28:50.400Z,3.4
2022-08-04T15:30:01.511Z,3.4
2022-08-04T15:31:10.396Z,4
2022-08-04T15:32:15.714Z,4
2022-08-04T15:33:24.101Z,4
2022-08-04T15:34:32.684Z,3.9
2022-08-04T15:35:41.059Z,3.9
2022-08-04T15:36:56.591Z,3.9
2022-08-04T15:37:58.073Z,2.3
2022-08-04T15:39:10.981Z,2.3
2022-08-04T15:40:27.028Z,2.3
2022-08-04T15:41:27.684Z,3.2
2022-08-04T15:42:36.057Z,3.2
2022-08-04T15:43:44.441Z,3.2
2022-08-04T15:44:53.021Z,13
2022-08-04T15:46:01.952Z,13
2022-08-04T15:47:09.767Z,13
2022-08-04T15:48:18.340Z,4.2
2022-08-04T15:49:26.736Z,4.2
2022-08-04T15:50:35.118Z,4.2
2022-08-04T15:51:43.721Z,3.5
2022-08-04T15:53:00.833Z,3.5
2022-08-04T15:54:01.586Z,3.5
2022-08-04T15:55:09.069Z,2.4
2022-08-04T15:56:17.426Z,2.4
2022-08-04T15:57:25.820Z,2.4
2022-08-04T15:58:34.403Z,2.1
2022-08-04T15:59:42.793Z,2.1
2022-08-04T16:00:51.174Z,2.1
2022-08-04T16:02:10.777Z,2
2022-08-04T16:03:08.243Z,2
2022-08-04T16:04:16.630Z,2
2022-08-04T16:05:25.196Z,3.3
2022-08-04T16:06:33.630Z,3.3
2022-08-04T16:07:42.009Z,3.3
2022-08-04T16:08:52.018Z,3
2022-08-04T16:09:59.001Z,3
2022-08-04T16:11:07.377Z,3
2022-08-04T16:12:27.202Z,2.1
2022-08-04T16:13:24.343Z,2.1
2022-08-04T16:14:32.717Z,2.1
2022-08-04T16:15:41.286Z,3.5
2022-08-04T16:16:49.662Z,3.5
2022-08-04T16:17:58.679Z,3.5
2022-08-04T16:19:07.271Z,4.9
2022-08-04T16:20:15.651Z,4.9
2022-08-04T16:21:24.043Z,4.9
2022-08-04T16:22:32.631Z,3.7
2022-08-04T16:23:53.383Z,3.7